sensor_id;sensor_type;location;lat;lon;timestamp;pressure;altitude;pressure_sealevel;temperature;humidity
80869;BME280;70295;40.182;44.498;2023-08-07T00:04:32;89736.7;;;27.31;37.98359
80869;BME280;70295;40.182;44.498;2023-08-07T00:06:53;89730.59;;;27.28;38.03926
80869;BME280;70295;40.182;44.498;2023-08-07T00:08:52;89734.05;;;27.28;38.02754
80869;BME280;70295;40.182;44.498;2023-08-07T00:10:52;89735.55;;;27.28;37.99238
80869;BME280;70295;40.182;44.498;2023-08-07T00:12:36;89737.47;;;27.29;38.06172
80869;BME280;70295;40.182;44.498;2023-08-07T00:16:10;89741.52;;;27.35;37.9416
80869;BME280;70295;40.182;44.498;2023-08-07T00:21:10;89743.98;;;27.4;37.88789
80869;BME280;70295;40.182;44.498;2023-08-07T00:23:10;89745.6;;;27.38;37.90937
80869;BME280;70295;40.182;44.498;2023-08-07T00:25:43;89744.84;;;27.32;37.96211
80869;BME280;70295;40.182;44.498;2023-08-07T00:27:51;89746.77;;;27.29;38.01582
80869;BME280;70295;40.182;44.498;2023-08-07T00:29:53;89747.83;;;27.32;38.06465
80869;BME280;70295;40.182;44.498;2023-08-07T00:31:53;89747.48;;;27.32;38.07637
80869;BME280;70295;40.182;44.498;2023-08-07T00:33:53;89743.92;;;27.3;38.04121
80869;BME280;70295;40.182;44.498;2023-08-07T00:35:53;89745.34;;;27.27;37.89961
80869;BME280;70295;40.182;44.498;2023-08-07T00:38:45;89746.78;;;27.25;37.67891
80869;BME280;70295;40.182;44.498;2023-08-07T00:40:45;89746.7;;;27.24;37.5168
80869;BME280;70295;40.182;44.498;2023-08-07T00:43:00;89744.11;;;27.2;37.44355
80869;BME280;70295;40.182;44.498;2023-08-07T00:45:47;89746.47;;;27.22;37.37715
80869;BME280;70295;40.182;44.498;2023-08-07T00:49:01;89748.67;;;27.28;37.18672
80869;BME280;70295;40.182;44.498;2023-08-07T00:50:36;89746.41;;;27.33;36.88008
80869;BME280;70295;40.182;44.498;2023-08-07T00:52:22;89746.39;;;27.29;36.93379
80869;BME280;70295;40.182;44.498;2023-08-07T00:54:22;89741.86;;;27.29;36.85273
80869;BME280;70295;40.182;44.498;2023-08-07T00:56:22;89746.41;;;27.29;36.92207
80869;BME280;70295;40.182;44.498;2023-08-07T00:58:21;89747.63;;;27.28;37.09394
80869;BME280;70295;40.182;44.498;2023-08-07T01:00:21;89747.27;;;27.28;37.23262
80869;BME280;70295;40.182;44.498;2023-08-07T01:02:22;89748.95;;;27.27;37.32441
80869;BME280;70295;40.182;44.498;2023-08-07T01:04:22;89750.5;;;27.26;37.38105
80869;BME280;70295;40.182;44.498;2023-08-07T01:06:22;89752.63;;;27.25;37.39082
80869;BME280;70295;40.182;44.498;2023-08-07T01:08:22;89750.22;;;27.23;37.44746
80869;BME280;70295;40.182;44.498;2023-08-07T01:12:30;89754.38;;;27.3;37.5334
80869;BME280;70295;40.182;44.498;2023-08-07T01:18:25;89756.14;;;27.24;37.3332
80869;BME280;70295;40.182;44.498;2023-08-07T01:20:26;89755.79;;;27.22;37.0666
80869;BME280;70295;40.182;44.498;2023-08-07T01:23:35;89757.43;;;27.18;37.00508
80869;BME280;70295;40.182;44.498;2023-08-07T01:25:35;89760.96;;;27.2;37.02949
80869;BME280;70295;40.182;44.498;2023-08-07T01:27:35;89761.16;;;27.21;36.98555
80869;BME280;70295;40.182;44.498;2023-08-07T01:35:12;89760.45;;;27.19;35.175
80869;BME280;70295;40.182;44.498;2023-08-07T01:38:46;89759.28;;;27.14;33.18769
80869;BME280;70295;40.182;44.498;2023-08-07T01:43:06;89766.23;;;27.09;32.49238
80869;BME280;70295;40.182;44.498;2023-08-07T01:45:30;89762.86;;;27.12;31.87226
80869;BME280;70295;40.182;44.498;2023-08-07T01:47:30;89761.64;;;27.12;31.69844
80869;BME280;70295;40.182;44.498;2023-08-07T01:54:21;89760.27;;;27.15;31.75898
80869;BME280;70295;40.182;44.498;2023-08-07T01:57:23;89758.56;;;27.11;32.47187
80869;BME280;70295;40.182;44.498;2023-08-07T01:59:23;89761.42;;;27.08;33.05586
80869;BME280;70295;40.182;44.498;2023-08-07T02:03:41;89766.63;;;26.99;34.00508
80869;BME280;70295;40.182;44.498;2023-08-07T02:06:45;89766.19;;;26.97;33.65937
80869;BME280;70295;40.182;44.498;2023-08-07T02:08:46;89769.69;;;26.95;33.75019
80869;BME280;70295;40.182;44.498;2023-08-07T02:10:45;89764.23;;;26.94;33.3918
80869;BME280;70295;40.182;44.498;2023-08-07T02:12:45;89766.24;;;26.92;33.10273
80869;BME280;70295;40.182;44.498;2023-08-07T02:14:46;89765.56;;;26.9;32.98555
80869;BME280;70295;40.182;44.498;2023-08-07T02:16:46;89765.69;;;26.88;32.83418
80869;BME280;70295;40.182;44.498;2023-08-07T02:18:46;89766.27;;;26.86;32.78535
80869;BME280;70295;40.182;44.498;2023-08-07T02:20:46;89769.19;;;26.86;32.80879
80869;BME280;70295;40.182;44.498;2023-08-07T02:22:46;89769.44;;;26.83;32.92305
80869;BME280;70295;40.182;44.498;2023-08-07T02:24:46;89774.28;;;26.79;33.04707
80869;BME280;70295;40.182;44.498;2023-08-07T02:31:36;89772.59;;;26.76;33.5041
80869;BME280;70295;40.182;44.498;2023-08-07T02:37:34;89780.77;;;26.8;33.78437
80869;BME280;70295;40.182;44.498;2023-08-07T02:39:08;89776.66;;;26.86;33.77754
80869;BME280;70295;40.182;44.498;2023-08-07T02:41:08;89776.04;;;26.89;33.82539
80869;BME280;70295;40.182;44.498;2023-08-07T02:43:08;89775.84;;;26.89;33.91816
80869;BME280;70295;40.182;44.498;2023-08-07T02:55:33;89778.91;;;26.98;34.82344
80869;BME280;70295;40.182;44.498;2023-08-07T02:58:54;89776.97;;;27.06;35.03633
80869;BME280;70295;40.182;44.498;2023-08-07T03:00:54;89783.14;;;27.08;35.30391
80869;BME280;70295;40.182;44.498;2023-08-07T03:04:18;89783.84;;;27.04;35.56562
80869;BME280;70295;40.182;44.498;2023-08-07T03:07:03;89783.2;;;27.12;35.65254
80869;BME280;70295;40.182;44.498;2023-08-07T03:09:03;89782.86;;;27.16;35.71309
80869;BME280;70295;40.182;44.498;2023-08-07T03:11:03;89783.94;;;27.22;35.4875
80869;BME280;70295;40.182;44.498;2023-08-07T03:13:03;89786.59;;;27.3;35.425
80869;BME280;70295;40.182;44.498;2023-08-07T03:15:42;89786.02;;;27.36;35.30293
80869;BME280;70295;40.182;44.498;2023-08-07T03:17:42;89782.28;;;27.43;34.94062
80869;BME280;70295;40.182;44.498;2023-08-07T03:19:43;89780.29;;;27.52;34.73945
80869;BME280;70295;40.182;44.498;2023-08-07T03:23:31;89776.92;;;27.54;34.21113
80869;BME280;70295;40.182;44.498;2023-08-07T03:29:03;89791.86;;;27.59;33.91426
80869;BME280;70295;40.182;44.498;2023-08-07T03:31:03;89794.55;;;27.6;33.81172
80869;BME280;70295;40.182;44.498;2023-08-07T03:33:03;89798.48;;;27.59;33.8332
80869;BME280;70295;40.182;44.498;2023-08-07T03:35:03;89797.38;;;27.59;33.79902
80869;BME280;70295;40.182;44.498;2023-08-07T03:44:19;89798.73;;;27.73;34.06269
80869;BME280;70295;40.182;44.498;2023-08-07T03:46:19;89799.2;;;27.73;33.98262
80869;BME280;70295;40.182;44.498;2023-08-07T03:51:06;89796.5;;;27.65;33.26094
80869;BME280;70295;40.182;44.498;2023-08-07T03:53:06;89799.63;;;27.6;33.26875
80869;BME280;70295;40.182;44.498;2023-08-07T03:55:06;89797.91;;;27.59;33.16426
80869;BME280;70295;40.182;44.498;2023-08-07T04:08:51;89803.91;;;27.64;33.46797
80869;BME280;70295;40.182;44.498;2023-08-07T04:11:17;89805.34;;;27.68;33.63301
80869;BME280;70295;40.182;44.498;2023-08-07T04:13:17;89804.94;;;27.73;33.65937
80869;BME280;70295;40.182;44.498;2023-08-07T04:15:17;89807.25;;;27.75;33.67305
80869;BME280;70295;40.182;44.498;2023-08-07T04:17:17;89805.37;;;27.8;33.71113
80869;BME280;70295;40.182;44.498;2023-08-07T04:23:03;89804.8;;;28.01;33.7043
80869;BME280;70295;40.182;44.498;2023-08-07T04:25:04;89802.36;;;28.08;33.45527
80869;BME280;70295;40.182;44.498;2023-08-07T04:29:46;89806.41;;;28.41;33.31953
80869;BME280;70295;40.182;44.498;2023-08-07T04:32:29;89808.39;;;28.88;32.92598
80869;BME280;70295;40.182;44.498;2023-08-07T04:34:29;89807.38;;;29.22;32.61641
80869;BME280;70295;40.182;44.498;2023-08-07T04:36:29;89809.28;;;29.52;32.34883
80869;BME280;70295;40.182;44.498;2023-08-07T04:38:29;89803.47;;;29.78;32.07832
80869;BME280;70295;40.182;44.498;2023-08-07T04:44:23;89798.91;;;30.49;30.82832
80869;BME280;70295;40.182;44.498;2023-08-07T04:46:23;89794.64;;;30.64;30.21113
80869;BME280;70295;40.182;44.498;2023-08-07T04:48:23;89792.39;;;30.82;29.5832
80869;BME280;70295;40.182;44.498;2023-08-07T04:50:23;89792.43;;;31.01;29.3166
80869;BME280;70295;40.182;44.498;2023-08-07T04:52:23;89793.36;;;31.19;29.16621
80869;BME280;70295;40.182;44.498;2023-08-07T04:54:23;89788.47;;;31.35;28.65254
80869;BME280;70295;40.182;44.498;2023-08-07T04:56:23;89792.11;;;31.51;28.4416
80869;BME280;70295;40.182;44.498;2023-08-07T04:58:23;89788.45;;;31.63;28.34394
80869;BME280;70295;40.182;44.498;2023-08-07T05:00:23;89786.59;;;31.78;28.16719
80869;BME280;70295;40.182;44.498;2023-08-07T05:02:23;89786.97;;;31.9;27.97676
80869;BME280;70295;40.182;44.498;2023-08-07T05:04:23;89784.48;;;32.03;27.76289
80869;BME280;70295;40.182;44.498;2023-08-07T05:06:23;89785.41;;;32.15;27.60664
80869;BME280;70295;40.182;44.498;2023-08-07T05:08:23;89779.42;;;32.28;27.47578
80869;BME280;70295;40.182;44.498;2023-08-07T05:10:23;89773.97;;;32.43;27.06367
80869;BME280;70295;40.182;44.498;2023-08-07T05:12:23;89767.7;;;32.56;26.69844
80869;BME280;70295;40.182;44.498;2023-08-07T05:14:36;89771.44;;;32.73;26.20527
80869;BME280;70295;40.182;44.498;2023-08-07T05:16:36;89772.83;;;32.86;26.04902
80869;BME280;70295;40.182;44.498;2023-08-07T05:19:59;89771.98;;;32.95;25.94941
80869;BME280;70295;40.182;44.498;2023-08-07T05:21:59;89776.98;;;33;25.68379
80869;BME280;70295;40.182;44.498;2023-08-07T05:23:59;89781.03;;;33.04;25.50996
80869;BME280;70295;40.182;44.498;2023-08-07T05:33:58;89782.97;;;33.66;25.07734
80869;BME280;70295;40.182;44.498;2023-08-07T05:35:55;89781.71;;;33.71;25.27949
80869;BME280;70295;40.182;44.498;2023-08-07T05:38:34;89777.88;;;33.8;25.41328
80869;BME280;70295;40.182;44.498;2023-08-07T05:40:34;89778.06;;;33.83;25.40351
80869;BME280;70295;40.182;44.498;2023-08-07T05:42:34;89777.01;;;33.87;25.33516
80869;BME280;70295;40.182;44.498;2023-08-07T05:44:34;89776.2;;;33.92;25.23262
80869;BME280;70295;40.182;44.498;2023-08-07T05:46:34;89773.77;;;34.02;25.12129
80869;BME280;70295;40.182;44.498;2023-08-07T05:48:34;89778.3;;;34.12;25.06855
80869;BME280;70295;40.182;44.498;2023-08-07T05:50:34;89774.7;;;34.25;24.88789
80869;BME280;70295;40.182;44.498;2023-08-07T05:52:34;89776.79;;;34.35;24.75312
80869;BME280;70295;40.182;44.498;2023-08-07T05:54:34;89777.22;;;34.41;24.68574
80869;BME280;70295;40.182;44.498;2023-08-07T05:56:34;89779.95;;;34.5;24.70234
80869;BME280;70295;40.182;44.498;2023-08-07T05:58:34;89774.03;;;34.61;24.7209
80869;BME280;70295;40.182;44.498;2023-08-07T06:00:34;89774.88;;;34.71;24.72578
80869;BME280;70295;40.182;44.498;2023-08-07T06:02:34;89766.75;;;34.78;24.63594
80869;BME280;70295;40.182;44.498;2023-08-07T06:04:34;89771.28;;;34.77;24.70625
80869;BME280;70295;40.182;44.498;2023-08-07T06:06:34;89770.98;;;34.76;24.82344
80869;BME280;70295;40.182;44.498;2023-08-07T06:08:34;89768.77;;;34.83;24.89668
80869;BME280;70295;40.182;44.498;2023-08-07T06:10:34;89759.4;;;34.9;24.98359
80869;BME280;70295;40.182;44.498;2023-08-07T06:12:34;89765.41;;;34.92;25.12617
80869;BME280;70295;40.182;44.498;2023-08-07T06:14:34;89759.9;;;34.92;24.98457
80869;BME280;70295;40.182;44.498;2023-08-07T06:16:34;89757.81;;;34.92;25.12617
80869;BME280;70295;40.182;44.498;2023-08-07T06:20:01;89750.26;;;34.97;25.25801
80869;BME280;70295;40.182;44.498;2023-08-07T06:22:01;89752.13;;;35.03;25.27266
80869;BME280;70295;40.182;44.498;2023-08-07T06:24:01;89753.08;;;35.08;25.18184
80869;BME280;70295;40.182;44.498;2023-08-07T06:26:01;89749.23;;;35.14;25.05586
80869;BME280;70295;40.182;44.498;2023-08-07T06:28:01;89741.66;;;35.2;24.92988
80869;BME280;70295;40.182;44.498;2023-08-07T06:30:01;89747.69;;;35.27;24.91035
80869;BME280;70295;40.182;44.498;2023-08-07T06:32:01;89738.03;;;35.31;24.79512
80869;BME280;70295;40.182;44.498;2023-08-07T06:34:01;89739.8;;;35.33;24.67891
80869;BME280;70295;40.182;44.498;2023-08-07T06:36:02;89739.2;;;35.37;24.56269
80869;BME280;70295;40.182;44.498;2023-08-07T06:38:01;89741.36;;;35.36;24.55098
80869;BME280;70295;40.182;44.498;2023-08-07T06:40:01;89740.89;;;35.41;24.36543
80869;BME280;70295;40.182;44.498;2023-08-07T06:42:01;89740.3;;;35.48;24.3459
80869;BME280;70295;40.182;44.498;2023-08-07T06:44:01;89737.86;;;35.56;24.17402
80869;BME280;70295;40.182;44.498;2023-08-07T06:46:01;89732.05;;;35.63;24.17695
80869;BME280;70295;40.182;44.498;2023-08-07T06:48:01;89731.83;;;35.68;24.00312
80869;BME280;70295;40.182;44.498;2023-08-07T06:50:01;89729.25;;;35.69;23.68574
80869;BME280;70295;40.182;44.498;2023-08-07T06:58:12;89731.06;;;35.65;23.79023
80869;BME280;70295;40.182;44.498;2023-08-07T07:00:12;89729.22;;;35.66;23.7668
80869;BME280;70295;40.182;44.498;2023-08-07T07:02:11;89734.16;;;35.68;23.7209
80869;BME280;70295;40.182;44.498;2023-08-07T07:09:26;89730.26;;;35.7;23.5334
80869;BME280;70295;40.182;44.498;2023-08-07T07:11:27;89722.63;;;35.72;23.45137
80869;BME280;70295;40.182;44.498;2023-08-07T07:13:26;89727.73;;;35.69;23.50996
80869;BME280;70295;40.182;44.498;2023-08-07T07:20:40;89719.95;;;35.46;23.80293
80869;BME280;70295;40.182;44.498;2023-08-07T07:22:41;89720.06;;;35.44;23.94355
80869;BME280;70295;40.182;44.498;2023-08-07T07:24:40;89722.12;;;35.42;23.97773
80869;BME280;70295;40.182;44.498;2023-08-07T07:26:40;89714.67;;;35.41;24.02461
80869;BME280;70295;40.182;44.498;2023-08-07T07:28:41;89716.42;;;35.39;24.02266
80869;BME280;70295;40.182;44.498;2023-08-07T07:30:40;89716.95;;;35.36;24.11543
80869;BME280;70295;40.182;44.498;2023-08-07T07:32:40;89717.39;;;35.32;24.09004
80869;BME280;70295;40.182;44.498;2023-08-07T07:34:41;89721.25;;;35.29;24.05293
80869;BME280;70295;40.182;44.498;2023-08-07T07:36:40;89719.55;;;35.27;24.06269
80869;BME280;70295;40.182;44.498;2023-08-07T07:38:41;89713.81;;;35.22;24.07246
80869;BME280;70295;40.182;44.498;2023-08-07T07:40:40;89718.13;;;35.2;24.07148
80869;BME280;70295;40.182;44.498;2023-08-07T07:42:40;89711.81;;;35.2;24.04805
80869;BME280;70295;40.182;44.498;2023-08-07T07:44:41;89703.7;;;35.2;23.9416
80869;BME280;70295;40.182;44.498;2023-08-07T07:47:23;89699.42;;;35.18;24.1291
80869;BME280;70295;40.182;44.498;2023-08-07T07:49:23;89696.03;;;35.2;24.30684
80869;BME280;70295;40.182;44.498;2023-08-07T07:51:23;89692.02;;;35.23;24.26094
80869;BME280;70295;40.182;44.498;2023-08-07T07:53:23;89693.73;;;35.23;24.27266
80869;BME280;70295;40.182;44.498;2023-08-07T07:55:24;89698.95;;;35.24;24.28535
80869;BME280;70295;40.182;44.498;2023-08-07T07:57:23;89692.44;;;35.2;24.21211
80869;BME280;70295;40.182;44.498;2023-08-07T07:59:23;89692.62;;;35.12;24.11348
80869;BME280;70295;40.182;44.498;2023-08-07T08:01:23;89679.44;;;35.06;24.16914
80869;BME280;70295;40.182;44.498;2023-08-07T08:03:23;89686.03;;;35.02;24.39082
80869;BME280;70295;40.182;44.498;2023-08-07T08:05:23;89685.99;;;35;24.37812
80869;BME280;70295;40.182;44.498;2023-08-07T08:07:23;89682.3;;;35;24.54316
80869;BME280;70295;40.182;44.498;2023-08-07T08:09:23;89686.72;;;35.02;24.5793
80869;BME280;70295;40.182;44.498;2023-08-07T08:11:23;89678.09;;;35.03;24.5207
80869;BME280;70295;40.182;44.498;2023-08-07T08:13:23;89677.67;;;35.04;24.41523
80869;BME280;70295;40.182;44.498;2023-08-07T08:16:32;89679.22;;;35;24.43672
80869;BME280;70295;40.182;44.498;2023-08-07T08:20:06;89677.2;;;35.01;24.24922
80869;BME280;70295;40.182;44.498;2023-08-07T08:22:06;89676.55;;;34.97;24.24726
80869;BME280;70295;40.182;44.498;2023-08-07T08:24:05;89668.84;;;34.91;24.30195
80869;BME280;70295;40.182;44.498;2023-08-07T08:26:06;89674.31;;;34.87;24.35859
80869;BME280;70295;40.182;44.498;2023-08-07T08:28:05;89669.12;;;34.87;24.41719
80869;BME280;70295;40.182;44.498;2023-08-07T08:30:05;89672.34;;;34.88;24.34785
80869;BME280;70295;40.182;44.498;2023-08-07T08:32:06;89668.65;;;34.88;24.25312
80869;BME280;70295;40.182;44.498;2023-08-07T08:34:05;89669.41;;;34.89;24.31269
80869;BME280;70295;40.182;44.498;2023-08-07T08:36:06;89669.48;;;34.87;24.3
80869;BME280;70295;40.182;44.498;2023-08-07T08:37:28;89670.13;;;34.88;24.38301
80869;BME280;70295;40.182;44.498;2023-08-07T08:39:28;89663.66;;;34.88;24.31269
80869;BME280;70295;40.182;44.498;2023-08-07T08:41:28;89667.48;;;34.87;24.40547
80869;BME280;70295;40.182;44.498;2023-08-07T08:43:28;89667.19;;;34.87;24.22969
80869;BME280;70295;40.182;44.498;2023-08-07T08:45:28;89664.36;;;34.86;24.18184
80869;BME280;70295;40.182;44.498;2023-08-07T08:48:31;89657.34;;;34.86;23.98164
80869;BME280;70295;40.182;44.498;2023-08-07T08:50:31;89660.32;;;34.85;24.0168
80869;BME280;70295;40.182;44.498;2023-08-07T08:52:31;89654.08;;;34.87;23.99434
80869;BME280;70295;40.182;44.498;2023-08-07T08:54:31;89652.23;;;34.87;24.04121
80869;BME280;70295;40.182;44.498;2023-08-07T08:56:31;89648.03;;;34.85;23.9582
80869;BME280;70295;40.182;44.498;2023-08-07T08:58:31;89644.79;;;34.83;23.79219
80869;BME280;70295;40.182;44.498;2023-08-07T09:00:31;89636.23;;;34.82;23.67402
80869;BME280;70295;40.182;44.498;2023-08-07T09:02:31;89636.59;;;34.82;23.82637
80869;BME280;70295;40.182;44.498;2023-08-07T09:04:31;89641.13;;;34.81;24.02656
80869;BME280;70295;40.182;44.498;2023-08-07T09:06:31;89631.18;;;34.81;24.14375
80869;BME280;70295;40.182;44.498;2023-08-07T09:08:31;89631.05;;;34.8;24.14375
80869;BME280;70295;40.182;44.498;2023-08-07T09:10:31;89629.23;;;34.78;24.07246
80869;BME280;70295;40.182;44.498;2023-08-07T09:12:31;89636.52;;;34.75;24.18769
80869;BME280;70295;40.182;44.498;2023-08-07T09:14:31;89641.14;;;34.73;24.25703
80869;BME280;70295;40.182;44.498;2023-08-07T09:16:31;89619.59;;;34.74;24.18672
80869;BME280;70295;40.182;44.498;2023-08-07T09:18:31;89627.96;;;34.74;24.24629
80869;BME280;70295;40.182;44.498;2023-08-07T09:20:31;89632.35;;;34.74;24.16328
80869;BME280;70295;40.182;44.498;2023-08-07T09:22:31;89621.56;;;34.73;24.32734
80869;BME280;70295;40.182;44.498;2023-08-07T09:24:31;89626.28;;;34.72;24.52656
80869;BME280;70295;40.182;44.498;2023-08-07T09:26:31;89617.25;;;34.7;24.64375
80869;BME280;70295;40.182;44.498;2023-08-07T09:28:31;89617.16;;;34.71;24.65547
80869;BME280;70295;40.182;44.498;2023-08-07T09:30:31;89625.55;;;34.72;24.64473
80869;BME280;70295;40.182;44.498;2023-08-07T09:32:31;89618.93;;;34.72;24.56172
80869;BME280;70295;40.182;44.498;2023-08-07T09:34:31;89617.19;;;34.69;24.51387
80869;BME280;70295;40.182;44.498;2023-08-07T09:36:31;89604.16;;;34.68;24.59492
80869;BME280;70295;40.182;44.498;2023-08-07T09:38:31;89610.7;;;34.65;24.54609
80869;BME280;70295;40.182;44.498;2023-08-07T09:40:31;89601.84;;;34.57;24.60078
80869;BME280;70295;40.182;44.498;2023-08-07T09:42:31;89611.62;;;34.55;24.74043
80869;BME280;70295;40.182;44.498;2023-08-07T09:46:31;89610.39;;;34.61;24.76777
80869;BME280;70295;40.182;44.498;2023-08-07T09:48:31;89610.95;;;34.66;24.60566
80869;BME280;70295;40.182;44.498;2023-08-07T09:50:31;89612.92;;;34.68;24.61836
80869;BME280;70295;40.182;44.498;2023-08-07T09:53:09;89612.06;;;34.69;24.51387
80869;BME280;70295;40.182;44.498;2023-08-07T09:55:09;89612.02;;;34.69;24.56074
80869;BME280;70295;40.182;44.498;2023-08-07T09:57:18;89608.13;;;34.79;24.50703
80869;BME280;70295;40.182;44.498;2023-08-07T09:59:18;89606.73;;;34.79;24.30781
80869;BME280;70295;40.182;44.498;2023-08-07T10:10:39;89588.09;;;34.79;24.38984
80869;BME280;70295;40.182;44.498;2023-08-07T10:12:39;89591.84;;;34.83;24.18086
80869;BME280;70295;40.182;44.498;2023-08-07T10:14:39;89589.89;;;34.84;24.06367
80869;BME280;70295;40.182;44.498;2023-08-07T10:16:39;89589.34;;;34.83;24.20332
80869;BME280;70295;40.182;44.498;2023-08-07T10:18:39;89589.15;;;34.81;24.17988
80869;BME280;70295;40.182;44.498;2023-08-07T10:20:39;89592.41;;;34.8;24.19062
80869;BME280;70295;40.182;44.498;2023-08-07T10:22:39;89587.66;;;34.8;24.31953
80869;BME280;70295;40.182;44.498;2023-08-07T10:24:39;89592.33;;;34.82;24.34492
80869;BME280;70295;40.182;44.498;2023-08-07T10:26:41;89593.67;;;34.87;24.24043
80869;BME280;70295;40.182;44.498;2023-08-07T10:28:39;89600.91;;;34.89;24.21894
80869;BME280;70295;40.182;44.498;2023-08-07T10:30:39;89617.84;;;34.92;23.91426
80869;BME280;70295;40.182;44.498;2023-08-07T10:32:39;89591.9;;;34.66;22.63105
80869;BME280;70295;40.182;44.498;2023-08-07T10:34:39;89611.77;;;34.34;22.12031
80869;BME280;70295;40.182;44.498;2023-08-07T10:36:39;89589.25;;;34.14;22.18086
80869;BME280;70295;40.182;44.498;2023-08-07T10:38:39;89602.73;;;34.02;22.23359
80869;BME280;70295;40.182;44.498;2023-08-07T10:44:39;89626.03;;;33.47;22.06465
80869;BME280;70295;40.182;44.498;2023-08-07T10:58:42;89610.09;;;33.26;22.19551
80869;BME280;70295;40.182;44.498;2023-08-07T11:00:42;89615.7;;;33.3;22.31465
80869;BME280;70295;40.182;44.498;2023-08-07T11:02:42;89615.98;;;33.35;22.30488
80869;BME280;70295;40.182;44.498;2023-08-07T11:04:42;89615.67;;;33.39;21.82637
80869;BME280;70295;40.182;44.498;2023-08-07T11:06:42;89617.03;;;33.38;21.65059
80869;BME280;70295;40.182;44.498;2023-08-07T11:08:42;89618.52;;;33.37;21.47383
80869;BME280;70295;40.182;44.498;2023-08-07T11:10:42;89617.34;;;33.39;21.2873
80869;BME280;70295;40.182;44.498;2023-08-07T11:12:42;89622.04;;;33.45;21.19551
80869;BME280;70295;40.182;44.498;2023-08-07T11:14:42;89622.2;;;33.5;21.175
80869;BME280;70295;40.182;44.498;2023-08-07T11:22:59;89656.07;;;33.52;21.3166
80869;BME280;70295;40.182;44.498;2023-08-07T11:24:59;89656.44;;;33.49;21.44453
80869;BME280;70295;40.182;44.498;2023-08-07T11:26:59;89666.41;;;33.49;21.59687
80869;BME280;70295;40.182;44.498;2023-08-07T11:28:59;89665.67;;;33.49;21.74922
80869;BME280;70295;40.182;44.498;2023-08-07T11:30:59;89689.2;;;33.46;22.04121
80869;BME280;70295;40.182;44.498;2023-08-07T11:32:59;89700.25;;;33.42;22.49629
80869;BME280;70295;40.182;44.498;2023-08-07T11:34:59;89712.17;;;33.37;22.67012
80869;BME280;70295;40.182;44.498;2023-08-07T11:36:59;89718.05;;;33.34;23.4543
80869;BME280;70295;40.182;44.498;2023-08-07T11:38:59;89739.56;;;33.28;24.01289
80869;BME280;70295;40.182;44.498;2023-08-07T11:41:03;89752.83;;;33.29;24.43476
80869;BME280;70295;40.182;44.498;2023-08-07T11:42:59;89768.44;;;33.28;25.45332
80869;BME280;70295;40.182;44.498;2023-08-07T11:44:59;89765.94;;;33.25;26.57637
80869;BME280;70295;40.182;44.498;2023-08-07T11:46:59;89732.84;;;33.12;25.87812
80869;BME280;70295;40.182;44.498;2023-08-07T11:48:59;89713.08;;;32.86;23.39277
80869;BME280;70295;40.182;44.498;2023-08-07T11:50:59;89683.93;;;32.71;22.07344
80869;BME280;70295;40.182;44.498;2023-08-07T11:59:09;89638.08;;;32.5;22.87031
80869;BME280;70295;40.182;44.498;2023-08-07T12:01:05;89640.47;;;32.4;23.41523
80869;BME280;70295;40.182;44.498;2023-08-07T12:03:07;89636;;;32.39;23.29707
80869;BME280;70295;40.182;44.498;2023-08-07T12:05:07;89636.51;;;32.34;23.91426
80869;BME280;70295;40.182;44.498;2023-08-07T12:07:04;89636.58;;;32.4;24.26875
80869;BME280;70295;40.182;44.498;2023-08-07T12:09:05;89637;;;32.48;24.27266
80869;BME280;70295;40.182;44.498;2023-08-07T12:11:05;89632.59;;;32.55;24.11348
80869;BME280;70295;40.182;44.498;2023-08-07T12:13:07;89628.99;;;32.62;24.17598
80869;BME280;70295;40.182;44.498;2023-08-07T12:22:18;89622.55;;;32.86;22.42012
80869;BME280;70295;40.182;44.498;2023-08-07T12:24:15;89619.59;;;32.89;22.53926
80869;BME280;70295;40.182;44.498;2023-08-07T12:29:11;89615.55;;;32.92;22.16621
80869;BME280;70295;40.182;44.498;2023-08-07T12:32:01;89620.47;;;33.01;21.47871
80869;BME280;70295;40.182;44.498;2023-08-07T12:35:10;89621.78;;;33.01;21.44355
80869;BME280;70295;40.182;44.498;2023-08-07T12:37:10;89616.8;;;33.01;21.11543
80869;BME280;70295;40.182;44.498;2023-08-07T12:39:10;89616.27;;;33.04;20.87129
80869;BME280;70295;40.182;44.498;2023-08-07T12:42:33;89608.44;;;33.1;19.67793
80869;BME280;70295;40.182;44.498;2023-08-07T12:44:33;89608.05;;;33.1;19.3498
80869;BME280;70295;40.182;44.498;2023-08-07T12:47:43;89598.91;;;33.14;18.89375
80869;BME280;70295;40.182;44.498;2023-08-07T12:49:43;89598.36;;;33.14;18.58906
80869;BME280;70295;40.182;44.498;2023-08-07T12:52:31;89598.68;;;33.11;18.81074
80869;BME280;70295;40.182;44.498;2023-08-07T12:56:44;89596.74;;;33.18;18.96601
80869;BME280;70295;40.182;44.498;2023-08-07T12:58:44;89593.81;;;33.22;18.94453
80869;BME280;70295;40.182;44.498;2023-08-07T13:00:31;89591.72;;;33.22;18.66328
80869;BME280;70295;40.182;44.498;2023-08-07T13:02:31;89590.61;;;33.24;18.47578
80869;BME280;70295;40.182;44.498;2023-08-07T13:05:37;89590.72;;;33.23;18.18184
80869;BME280;70295;40.182;44.498;2023-08-07T13:07:37;89587.89;;;33.24;18.00605
80869;BME280;70295;40.182;44.498;2023-08-07T13:09:37;89590.81;;;33.25;18.17109
80869;BME280;70295;40.182;44.498;2023-08-07T13:19:14;89590.28;;;33.28;20.02656
80869;BME280;70295;40.182;44.498;2023-08-07T13:21:14;89591.39;;;33.3;20.16816
80869;BME280;70295;40.182;44.498;2023-08-07T13:23:14;89588.83;;;33.3;20.3791